Time;durP1;ratioP1;P1;durP2;ratioP2;P2;SDS_P1;SDS_P2;PMS_P1;PMS_P2;Temp;Humidity;BMP_temperature;BMP_pressure;BME280_temperature;BME280_humidity;BME280_pressure;Samples;Min_cycle;Max_cycle;Signal;HPM_P1;HPM_P2
2023/01/18 00:01:11;;;;;;;5.05;1.55;;;25.10;51.20;;;;;;4955885;29;20198;-50
2023/01/18 00:03:42;;;;;;;3.00;1.20;;;25.00;51.10;;;;;;4955815;28;20203;-51
2023/01/18 00:06:13;;;;;;;3.17;1.30;;;25.10;51.20;;;;;;4955843;28;20207;-54
2023/01/18 00:08:44;;;;;;;5.22;1.65;;;25.10;51.20;;;;;;4955960;29;20199;-52
2023/01/18 00:11:17;;;;;;;3.15;1.80;;;25.10;51.20;;;;;;4946486;29;20202;-49
2023/01/18 00:13:51;;;;;;;4.72;1.80;;;25.10;51.30;;;;;;4955266;29;20286;-50
2023/01/18 00:16:24;;;;;;;3.92;1.60;;;25.10;51.30;;;;;;4928970;29;20245;-52
2023/01/18 00:18:56;;;;;;;2.80;1.50;;;25.10;51.20;;;;;;4955419;29;20241;-49
2023/01/18 00:21:27;;;;;;;3.90;1.40;;;25.20;51.30;;;;;;4943816;29;20202;-50
2023/01/18 00:23:58;;;;;;;3.13;1.67;;;25.20;51.30;;;;;;4954168;29;20198;-51
2023/01/18 00:26:28;;;;;;;3.55;1.50;;;25.20;51.30;;;;;;4940792;29;20213;-51
2023/01/18 00:29:01;;;;;;;2.63;1.48;;;25.20;51.30;;;;;;4955627;29;20206;-50
2023/01/18 00:31:32;;;;;;;3.30;1.50;;;25.20;51.40;;;;;;4955654;29;20194;-48
2023/01/18 00:34:02;;;;;;;2.83;1.30;;;25.20;51.30;;;;;;4942454;29;20236;-49
2023/01/18 00:36:33;;;;;;;2.67;1.30;;;25.20;51.40;;;;;;4940220;29;20222;-51
2023/01/18 00:39:04;;;;;;;2.10;1.27;;;25.20;51.40;;;;;;4955207;29;20564;-52
2023/01/18 00:43:37;;;;;;;2.70;1.30;;;25.30;51.50;;;;;;4944957;29;20199;-48
2023/01/18 00:44:25;;;;;;;3.42;1.60;;;25.30;51.50;;;;;;4954852;29;20257;-53
2023/01/18 00:46:56;;;;;;;2.33;1.17;;;25.30;51.50;;;;;;4947343;28;20335;-52
2023/01/18 00:49:27;;;;;;;2.08;1.38;;;25.30;51.50;;;;;;4935838;29;20199;-50
2023/01/18 00:51:58;;;;;;;3.65;1.55;;;25.30;51.50;;;;;;4943500;29;20679;-51
2023/01/18 00:54:28;;;;;;;3.08;1.38;;;25.30;51.60;;;;;;4949270;29;20254;-50
2023/01/18 00:56:59;;;;;;;4.32;1.55;;;25.30;51.60;;;;;;4942560;29;20211;-51
2023/01/18 00:59:32;;;;;;;3.42;1.50;;;25.30;51.70;;;;;;4954295;28;20202;-54
2023/01/18 01:02:02;;;;;;;3.53;1.33;;;25.30;51.70;;;;;;4954745;29;20195;-50
2023/01/18 01:07:20;;;;;;;3.15;1.60;;;25.40;51.70;;;;;;4954680;28;20637;-53
2023/01/18 01:09:50;;;;;;;3.58;1.35;;;25.40;51.70;;;;;;4953876;29;20195;-52
2023/01/18 01:26:19;;;;;;;2.72;1.30;;;25.50;51.80;;;;;;4954281;28;20270;-51
2023/01/18 01:28:54;;;;;;;1.48;1.15;;;25.50;51.70;;;;;;4935001;29;20582;-50
2023/01/18 01:31:27;;;;;;;4.10;1.70;;;25.50;51.80;;;;;;4935701;29;20229;-50
2023/01/18 01:33:57;;;;;;;3.72;1.58;;;25.60;51.80;;;;;;4954065;29;20592;-53
2023/01/18 01:36:28;;;;;;;2.03;1.35;;;25.60;51.80;;;;;;4943153;29;20223;-46
2023/01/18 01:38:59;;;;;;;2.63;1.42;;;25.60;51.70;;;;;;4954100;29;20206;-54
2023/01/18 01:41:30;;;;;;;2.95;1.25;;;25.60;51.70;;;;;;4940191;29;20211;-53
2023/01/18 01:44:03;;;;;;;2.92;1.58;;;25.60;51.70;;;;;;4954145;29;20214;-49
2023/01/18 01:46:42;;;;;;;2.63;1.50;;;25.60;51.70;;;;;;4948314;28;20215;-49
2023/01/18 01:49:15;;;;;;;4.05;1.58;;;25.70;51.80;;;;;;4950775;29;20682;-50
2023/01/18 01:51:49;;;;;;;2.28;1.20;;;25.70;51.80;;;;;;4953860;28;20207;-51
2023/01/18 01:54:25;;;;;;;3.20;1.42;;;25.70;51.80;;;;;;4954094;29;20713;-49
2023/01/18 01:56:59;;;;;;;4.50;1.52;;;25.70;51.80;;;;;;4950144;28;20218;-45
2023/01/18 01:59:30;;;;;;;3.22;1.40;;;25.70;51.80;;;;;;4915878;29;20210;-52
2023/01/18 02:02:03;;;;;;;3.45;1.40;;;25.70;51.80;;;;;;4922909;29;20275;-51
2023/01/18 02:04:34;;;;;;;4.88;1.80;;;25.80;51.80;;;;;;4953594;29;20199;-47
2023/01/18 02:07:05;;;;;;;2.50;1.20;;;25.80;51.80;;;;;;4953292;28;20222;-49
2023/01/18 02:09:36;;;;;;;3.30;1.40;;;25.80;51.80;;;;;;4940807;29;20208;-53
2023/01/18 02:12:07;;;;;;;4.07;1.60;;;25.80;51.70;;;;;;4937852;29;20588;-47
2023/01/18 02:14:38;;;;;;;2.63;1.35;;;25.90;51.70;;;;;;4953573;29;20391;-52
2023/01/18 02:17:20;;;;;;;3.40;1.60;;;25.90;51.70;;;;;;4945040;28;20694;-50
2023/01/18 02:20:28;;;;;;;3.85;1.40;;;25.90;51.70;;;;;;4934594;29;20199;-53
2023/01/18 02:23:35;;;;;;;3.50;1.65;;;25.90;51.70;;;;;;4944524;29;20564;-51
2023/01/18 02:26:34;;;;;;;2.40;1.15;;;25.90;51.70;;;;;;4914898;29;20219;-49
2023/01/18 02:29:16;;;;;;;3.55;1.48;;;25.90;51.60;;;;;;4928858;29;20196;-53
2023/01/18 02:32:03;;;;;;;3.83;1.73;;;26.00;51.70;;;;;;4934030;29;20203;-52
2023/01/18 02:34:42;;;;;;;4.55;1.60;;;26.00;51.70;;;;;;4953102;29;20230;-51
2023/01/18 02:37:22;;;;;;;4.53;1.63;;;26.00;52.30;;;;;;4952949;28;20553;-53
2023/01/18 02:40:11;;;;;;;3.88;1.70;;;26.00;51.70;;;;;;4951574;29;20203;-52
2023/01/18 02:48:23;;;;;;;2.25;1.10;;;26.10;51.70;;;;;;4938767;29;20609;-50
2023/01/18 02:50:54;;;;;;;3.13;1.52;;;26.10;51.60;;;;;;4953731;29;20202;-50
2023/01/18 02:53:24;;;;;;;4.28;1.75;;;26.10;51.60;;;;;;4941557;29;20207;-53
2023/01/18 02:55:59;;;;;;;3.33;1.50;;;26.10;51.60;;;;;;4933789;29;21099;-54
2023/01/18 02:58:32;;;;;;;2.55;1.30;;;26.10;51.60;;;;;;4946404;29;20205;-51
2023/01/18 03:01:09;;;;;;;4.45;1.70;;;26.20;51.60;;;;;;4952754;29;20205;-52
2023/01/18 03:03:42;;;;;;;2.17;1.27;;;26.20;51.60;;;;;;4952934;29;20209;-52
2023/01/18 03:06:12;;;;;;;2.92;1.50;;;26.20;51.70;;;;;;4952884;28;20226;-52
2023/01/18 03:08:47;;;;;;;3.10;1.40;;;26.20;51.60;;;;;;4952987;29;20221;-48
2023/01/18 03:11:22;;;;;;;3.03;1.40;;;26.20;51.60;;;;;;4940165;29;20199;-50
2023/01/18 03:14:09;;;;;;;3.28;1.73;;;26.30;51.70;;;;;;4947354;29;20198;-48
2023/01/18 03:16:58;;;;;;;2.97;1.45;;;26.30;51.60;;;;;;4932946;29;20229;-55
2023/01/18 03:25:20;;;;;;;3.25;1.30;;;26.40;51.50;;;;;;4942097;29;20214;-44
2023/01/18 03:33:45;;;;;;;2.67;1.33;;;26.50;51.50;;;;;;4952643;29;20705;-52
2023/01/18 03:36:22;;;;;;;3.42;1.38;;;26.50;51.50;;;;;;4952052;28;20230;-51
2023/01/18 03:38:57;;;;;;;4.55;1.70;;;26.50;51.50;;;;;;4944847;29;20202;-47
2023/01/18 03:41:31;;;;;;;3.05;1.58;;;26.50;51.50;;;;;;4932499;29;20207;-49
2023/01/18 03:44:07;;;;;;;2.38;1.23;;;26.50;51.50;;;;;;4947136;29;20558;-48
2023/01/18 03:46:40;;;;;;;4.65;1.90;;;26.60;51.50;;;;;;4921029;29;20219;-50
2023/01/18 03:49:13;;;;;;;2.53;1.20;;;26.60;51.50;;;;;;4946853;29;20206;-53
2023/01/18 03:52:01;;;;;;;2.50;1.35;;;26.60;51.50;;;;;;4933950;28;20218;-49
2023/01/18 03:54:39;;;;;;;2.92;1.40;;;26.60;51.50;;;;;;4950074;29;20246;-50
2023/01/18 03:57:17;;;;;;;3.03;1.50;;;26.60;51.50;;;;;;4951932;28;20218;-54
2023/01/18 03:59:48;;;;;;;2.85;1.40;;;26.70;51.50;;;;;;4914662;29;20203;-51
2023/01/18 04:02:20;;;;;;;3.47;1.30;;;26.70;51.40;;;;;;4913749;29;20208;-47
2023/01/18 04:04:56;;;;;;;3.78;1.50;;;26.70;51.30;;;;;;4914281;29;20208;-50
2023/01/18 04:07:27;;;;;;;2.78;1.50;;;26.70;51.20;;;;;;4913863;29;20312;-46
2023/01/18 04:09:58;;;;;;;2.67;1.40;;;26.80;51.30;;;;;;4949985;29;20199;-45
2023/01/18 04:12:30;;;;;;;1.70;1.45;;;26.80;51.30;;;;;;4933199;29;20199;-48
2023/01/18 04:15:00;;;;;;;2.95;1.52;;;26.80;51.30;;;;;;4951996;29;20695;-50
2023/01/18 04:17:31;;;;;;;4.03;1.30;;;26.80;51.30;;;;;;4951474;28;20241;-49
2023/01/18 04:20:04;;;;;;;3.63;1.55;;;26.90;51.30;;;;;;4951454;29;20267;-47
2023/01/18 04:22:35;;;;;;;2.92;1.70;;;26.90;51.30;;;;;;4951550;29;20218;-48
2023/01/18 04:25:06;;;;;;;2.50;1.50;;;26.90;51.30;;;;;;4951463;29;20772;-50
2023/01/18 04:27:36;;;;;;;2.47;1.45;;;27.00;51.30;;;;;;4950679;28;20227;-51
2023/01/18 04:30:08;;;;;;;2.85;1.25;;;27.00;51.30;;;;;;4951243;29;20683;-49
2023/01/18 04:32:38;;;;;;;2.63;1.73;;;26.90;51.30;;;;;;4951364;28;20574;-50
2023/01/18 04:35:11;;;;;;;3.17;1.80;;;27.00;51.30;;;;;;4954198;29;20223;-49
2023/01/18 04:37:42;;;;;;;4.63;1.75;;;27.00;51.20;;;;;;4955442;28;20606;-45
2023/01/18 04:40:14;;;;;;;3.53;1.60;;;27.00;51.10;;;;;;4950884;29;20219;-50
2023/01/18 04:42:45;;;;;;;3.78;1.40;;;27.10;51.20;;;;;;4933119;29;20208;-49
2023/01/18 04:45:17;;;;;;;2.30;1.33;;;27.10;51.20;;;;;;4923205;29;20212;-49
2023/01/18 04:47:47;;;;;;;2.70;1.60;;;27.10;51.20;;;;;;4933639;29;20211;-50
2023/01/18 04:50:37;;;;;;;4.07;1.60;;;27.10;51.20;;;;;;4954765;29;20203;-48
2023/01/18 04:53:27;;;;;;;3.63;1.42;;;27.10;50.90;;;;;;4955210;28;20195;-49
2023/01/18 04:55:58;;;;;;;7.25;1.85;;;27.10;50.90;;;;;;4954844;28;20590;-52
2023/01/18 04:58:28;;;;;;;4.50;1.77;;;27.00;50.80;;;;;;4954782;29;20195;-53
2023/01/18 05:01:03;;;;;;;5.15;1.52;;;26.80;50.90;;;;;;4954736;29;20678;-52
2023/01/18 05:03:36;;;;;;;5.88;1.83;;;26.70;51.10;;;;;;4954723;29;20190;-49
2023/01/18 05:06:13;;;;;;;4.53;1.70;;;26.60;51.30;;;;;;4953864;28;20222;-51
2023/01/18 05:08:44;;;;;;;6.72;1.70;;;26.50;51.80;;;;;;4954206;29;20584;-52
2023/01/18 05:11:17;;;;;;;5.57;1.92;;;26.40;52.00;;;;;;4942286;29;20211;-51
2023/01/18 05:13:48;;;;;;;6.25;1.60;;;26.30;52.10;;;;;;4943192;29;20565;-54
2023/01/18 05:16:20;;;;;;;6.53;1.95;;;26.20;52.40;;;;;;4953811;28;20243;-52
2023/01/18 05:18:51;;;;;;;4.43;1.70;;;26.10;52.70;;;;;;4943873;29;20196;-55
2023/01/18 05:21:23;;;;;;;7.32;1.85;;;26.00;52.90;;;;;;4935057;29;20211;-52
2023/01/18 05:23:54;;;;;;;5.35;1.85;;;25.90;53.30;;;;;;4942638;29;20659;-49
2023/01/18 05:26:25;;;;;;;4.45;1.80;;;25.80;53.30;;;;;;4954327;28;20219;-49
2023/01/18 05:29:00;;;;;;;4.65;1.77;;;25.70;53.60;;;;;;4952809;28;20199;-50
2023/01/18 05:31:30;;;;;;;4.93;1.55;;;25.60;53.80;;;;;;4933245;29;20203;-49
2023/01/18 05:34:01;;;;;;;6.38;2.10;;;25.50;54.00;;;;;;4943742;29;20210;-55
2023/01/18 05:36:34;;;;;;;5.95;2.60;;;25.50;54.20;;;;;;4943208;29;20223;-54
2023/01/18 05:39:04;;;;;;;6.32;1.90;;;25.40;54.40;;;;;;4943001;29;20187;-50
2023/01/18 05:41:35;;;;;;;5.38;1.92;;;25.40;54.60;;;;;;4938097;29;20208;-52
2023/01/18 05:44:06;;;;;;;4.43;1.95;;;25.30;54.80;;;;;;4943094;28;20203;-51
2023/01/18 05:46:36;;;;;;;5.82;2.10;;;25.20;54.80;;;;;;4953249;28;20261;-53
2023/01/18 05:49:07;;;;;;;5.80;2.17;;;25.20;55.00;;;;;;4954160;29;20203;-53
2023/01/18 05:51:40;;;;;;;6.28;1.90;;;25.10;55.00;;;;;;4940877;29;20992;-51
2023/01/18 05:54:11;;;;;;;7.75;2.13;;;25.10;55.40;;;;;;4935246;29;20199;-52
2023/01/18 05:56:41;;;;;;;75.68;26.30;;;25.00;55.40;;;;;;4927654;29;20239;-50
2023/01/18 05:59:13;;;;;;;23.15;8.20;;;24.90;55.60;;;;;;4916004;29;20652;-50
2023/01/18 06:01:44;;;;;;;10.30;3.72;;;24.90;55.70;;;;;;4932897;29;20243;-51
2023/01/18 06:04:15;;;;;;;7.60;2.38;;;24.90;55.80;;;;;;4934860;29;20195;-51
2023/01/18 06:06:47;;;;;;;6.60;2.25;;;24.80;55.80;;;;;;4934785;29;20216;-52
2023/01/18 06:09:18;;;;;;;6.28;2.00;;;24.80;55.90;;;;;;4934611;29;20683;-53
2023/01/18 06:11:48;;;;;;;8.40;2.25;;;24.80;55.90;;;;;;4933848;29;20204;-52
2023/01/18 06:14:19;;;;;;;7.15;2.30;;;24.70;56.10;;;;;;4933927;29;20218;-45
2023/01/18 06:16:50;;;;;;;7.43;2.28;;;24.70;56.10;;;;;;4933757;29;20240;-46
2023/01/18 06:19:20;;;;;;;6.35;2.35;;;24.70;55.90;;;;;;4934357;29;20210;-51
2023/01/18 06:21:53;;;;;;;11.15;2.28;;;24.70;56.00;;;;;;4934838;29;20207;-48
2023/01/18 06:24:24;;;;;;;7.38;2.58;;;24.70;56.10;;;;;;4934336;29;20204;-47
2023/01/18 06:26:54;;;;;;;6.57;2.03;;;24.70;56.10;;;;;;4933626;29;20234;-46
2023/01/18 06:29:25;;;;;;;5.88;2.10;;;24.80;56.10;;;;;;4934039;29;20660;-47
2023/01/18 06:31:56;;;;;;;6.50;2.50;;;24.90;56.00;;;;;;4934131;29;20204;-47
2023/01/18 06:34:26;;;;;;;5.60;2.30;;;24.90;55.80;;;;;;4934114;29;20207;-49
2023/01/18 06:36:59;;;;;;;8.50;2.38;;;25.00;55.80;;;;;;4934101;29;20231;-48
2023/01/18 06:39:29;;;;;;;7.38;2.35;;;25.00;56.30;;;;;;4934137;29;20195;-46
2023/01/18 06:42:00;;;;;;;5.45;2.00;;;25.10;55.60;;;;;;4930826;29;20204;-46
2023/01/18 06:44:31;;;;;;;5.82;2.28;;;25.10;55.50;;;;;;4917189;29;20224;-51
2023/01/18 06:47:01;;;;;;;4.78;2.15;;;25.10;55.30;;;;;;4934013;29;20220;-47
2023/01/18 06:49:32;;;;;;;4.25;2.00;;;25.20;55.30;;;;;;4934112;29;20233;-46
2023/01/18 06:52:05;;;;;;;5.55;2.00;;;25.30;55.20;;;;;;4927044;29;20208;-44
2023/01/18 06:54:35;;;;;;;6.07;2.72;;;25.30;55.00;;;;;;4914956;29;20215;-48
2023/01/18 06:57:06;;;;;;;6.00;2.25;;;25.40;55.00;;;;;;4913969;29;20605;-47
2023/01/18 06:59:37;;;;;;;4.03;2.20;;;25.40;54.90;;;;;;4914840;29;20204;-48
2023/01/18 07:02:07;;;;;;;4.00;1.88;;;25.50;54.80;;;;;;4915042;29;20695;-46
2023/01/18 07:04:42;;;;;;;4.90;2.08;;;25.50;54.70;;;;;;4914582;29;20212;-50
2023/01/18 07:07:15;;;;;;;4.15;1.88;;;25.60;54.60;;;;;;4919115;29;20216;-46
2023/01/18 07:09:46;;;;;;;3.53;1.90;;;25.60;54.60;;;;;;4926020;29;20206;-50
2023/01/18 07:12:17;;;;;;;4.75;1.88;;;25.70;54.50;;;;;;4933047;29;20207;-45
2023/01/18 07:14:47;;;;;;;3.88;2.00;;;25.70;54.50;;;;;;4931949;29;20204;-46
2023/01/18 07:17:18;;;;;;;2.83;1.73;;;25.80;54.40;;;;;;4925638;29;20246;-48
2023/01/18 07:19:49;;;;;;;4.22;1.90;;;25.80;54.30;;;;;;4933287;29;20199;-49
2023/01/18 07:22:21;;;;;;;3.58;1.63;;;25.80;54.20;;;;;;4932935;29;20206;-51
2023/01/18 07:24:52;;;;;;;4.57;2.10;;;25.80;54.10;;;;;;4933404;29;20203;-50
2023/01/18 07:27:23;;;;;;;3.63;1.70;;;25.80;54.00;;;;;;4932970;29;20230;-48
2023/01/18 07:29:53;;;;;;;4.22;2.15;;;25.80;53.90;;;;;;4935664;29;20207;-49
2023/01/18 07:32:24;;;;;;;5.22;2.15;;;25.90;53.90;;;;;;4932634;29;20204;-47
2023/01/18 07:34:55;;;;;;;4.85;2.17;;;25.90;53.80;;;;;;4933359;29;20200;-48
2023/01/18 07:37:27;;;;;;;4.22;1.85;;;25.90;53.80;;;;;;4930388;29;20235;-48
2023/01/18 07:39:58;;;;;;;4.22;2.20;;;25.90;53.70;;;;;;4915845;29;20203;-46
2023/01/18 07:42:28;;;;;;;5.90;2.13;;;25.90;53.60;;;;;;4924930;29;20199;-47
2023/01/18 07:44:59;;;;;;;5.28;2.28;;;25.90;53.60;;;;;;4915849;29;20219;-46
2023/01/18 07:47:30;;;;;;;3.20;1.88;;;26.00;53.60;;;;;;4922330;29;20207;-48
2023/01/18 07:50:00;;;;;;;3.63;1.90;;;26.00;53.50;;;;;;4933629;29;20574;-50
2023/01/18 07:52:33;;;;;;;4.07;1.70;;;25.90;53.40;;;;;;4933833;29;20212;-47
2023/01/18 07:55:04;;;;;;;4.38;1.88;;;25.90;53.30;;;;;;4933214;29;20207;-48
2023/01/18 07:57:34;;;;;;;3.55;1.83;;;25.90;53.20;;;;;;4932653;29;20680;-46
2023/01/18 08:00:06;;;;;;;3.38;1.80;;;26.00;53.20;;;;;;4933255;29;20204;-47
2023/01/18 08:02:37;;;;;;;6.20;2.35;;;26.00;53.20;;;;;;4933256;29;20199;-47
2023/01/18 08:05:08;;;;;;;5.22;2.10;;;25.90;53.00;;;;;;4933351;29;20219;-48
2023/01/18 08:07:41;;;;;;;3.55;1.80;;;26.00;53.00;;;;;;4933890;29;20731;-49
2023/01/18 08:10:13;;;;;;;3.00;1.52;;;26.00;53.00;;;;;;4936517;29;20203;-47
2023/01/18 08:12:44;;;;;;;3.38;1.88;;;25.90;52.90;;;;;;4936691;29;20302;-47
2023/01/18 08:15:15;;;;;;;3.00;2.00;;;25.90;53.00;;;;;;4936714;29;20578;-48
2023/01/18 08:17:46;;;;;;;3.50;1.90;;;25.90;52.90;;;;;;4936456;29;20235;-48
2023/01/18 08:20:17;;;;;;;4.35;1.90;;;25.90;52.90;;;;;;4936644;29;20652;-49
2023/01/18 08:22:49;;;;;;;3.47;2.08;;;25.90;52.90;;;;;;4936554;29;20207;-48
2023/01/18 08:25:20;;;;;;;4.38;2.03;;;25.90;52.80;;;;;;4936528;29;20203;-48
2023/01/18 08:27:51;;;;;;;4.05;2.13;;;25.90;52.80;;;;;;4936335;29;20697;-47
2023/01/18 08:30:23;;;;;;;3.20;1.77;;;25.90;52.80;;;;;;4936367;29;20199;-46
2023/01/18 08:32:53;;;;;;;3.83;1.95;;;25.90;52.70;;;;;;4936662;29;20814;-48
2023/01/18 08:35:24;;;;;;;3.75;1.73;;;25.90;52.70;;;;;;4936039;29;20206;-46
2023/01/18 08:37:57;;;;;;;3.08;1.75;;;25.90;52.70;;;;;;4935859;29;20237;-47
2023/01/18 08:40:29;;;;;;;2.83;1.92;;;25.90;52.70;;;;;;4936250;29;20215;-49
2023/01/18 08:43:01;;;;;;;3.13;1.73;;;25.80;52.70;;;;;;4936280;29;20227;-48
2023/01/18 08:45:32;;;;;;;2.67;1.52;;;25.80;52.60;;;;;;4936241;29;20678;-46
2023/01/18 08:48:03;;;;;;;4.97;1.88;;;25.80;52.60;;;;;;4935900;29;20203;-46
2023/01/18 08:50:35;;;;;;;3.80;1.80;;;25.80;52.70;;;;;;4936084;29;20219;-47
2023/01/18 08:53:08;;;;;;;4.20;1.70;;;25.80;52.70;;;;;;4936662;29;20671;-48
2023/01/18 08:55:39;;;;;;;7.28;1.92;;;25.80;52.70;;;;;;4936349;29;20585;-50
2023/01/18 08:58:10;;;;;;;3.97;1.90;;;25.80;52.70;;;;;;4935936;29;20266;-48
2023/01/18 09:00:41;;;;;;;5.60;2.40;;;25.80;53.30;;;;;;4936180;29;20290;-49
2023/01/18 09:03:12;;;;;;;3.78;1.77;;;25.80;52.80;;;;;;4936194;29;20235;-51
2023/01/18 09:05:42;;;;;;;3.17;1.70;;;25.80;52.70;;;;;;4935498;29;20243;-48
2023/01/18 09:08:15;;;;;;;4.22;1.52;;;25.80;52.70;;;;;;4929385;29;20200;-50
2023/01/18 09:10:46;;;;;;;3.50;1.90;;;25.80;52.80;;;;;;4932815;29;20206;-50
2023/01/18 09:13:16;;;;;;;3.38;1.52;;;25.70;52.70;;;;;;4938764;29;20200;-45
2023/01/18 09:15:47;;;;;;;5.05;2.03;;;25.70;52.80;;;;;;4935541;29;20216;-49
2023/01/18 09:18:18;;;;;;;4.07;1.90;;;25.70;52.70;;;;;;4948479;29;20278;-47
2023/01/18 09:20:48;;;;;;;2.95;1.60;;;25.70;52.70;;;;;;4953264;28;20206;-51
2023/01/18 09:23:21;;;;;;;4.10;1.67;;;25.70;52.70;;;;;;4953822;29;20206;-47
2023/01/18 09:26:05;;;;;;;3.65;1.83;;;25.60;52.60;;;;;;4942592;28;20203;-51
2023/01/18 09:28:35;;;;;;;4.72;1.90;;;25.70;52.60;;;;;;4947700;29;20209;-51
2023/01/18 09:31:09;;;;;;;4.00;1.40;;;25.70;52.60;;;;;;4915832;29;20578;-50
2023/01/18 09:33:41;;;;;;;4.22;1.70;;;25.60;52.60;;;;;;4946075;29;20719;-49
2023/01/18 09:36:14;;;;;;;4.00;1.77;;;25.60;52.50;;;;;;4953279;28;20228;-46
2023/01/18 09:38:46;;;;;;;2.33;1.42;;;25.60;52.50;;;;;;4953492;29;20194;-48
2023/01/18 09:41:31;;;;;;;2.67;1.40;;;25.60;52.50;;;;;;4941609;29;20823;-48
2023/01/18 09:44:08;;;;;;;3.97;1.80;;;25.60;52.50;;;;;;4951560;29;20206;-49
2023/01/18 09:46:41;;;;;;;4.32;1.90;;;25.60;52.50;;;;;;4953468;28;20223;-47
2023/01/18 09:49:20;;;;;;;2.80;1.70;;;25.50;52.40;;;;;;4952168;29;20236;-47
2023/01/18 09:51:58;;;;;;;4.03;1.85;;;25.50;52.40;;;;;;4952664;29;20209;-47
2023/01/18 09:54:41;;;;;;;2.90;1.55;;;25.50;52.40;;;;;;4953629;28;20206;-47
2023/01/18 09:57:19;;;;;;;2.45;1.90;;;25.50;52.30;;;;;;4953498;28;20235;-47
2023/01/18 09:59:55;;;;;;;3.40;1.60;;;25.50;52.30;;;;;;4943159;29;20212;-50
2023/01/18 10:02:31;;;;;;;3.38;1.45;;;25.50;52.30;;;;;;4926724;29;20206;-50
2023/01/18 10:05:06;;;;;;;3.90;1.70;;;25.40;52.30;;;;;;4953714;29;20218;-48
2023/01/18 10:07:44;;;;;;;1.85;1.40;;;25.40;52.30;;;;;;4951227;28;20214;-48
2023/01/18 10:10:19;;;;;;;3.20;1.60;;;25.40;52.30;;;;;;4949230;29;20207;-49
2023/01/18 10:12:59;;;;;;;3.35;1.65;;;25.40;52.30;;;;;;4940542;29;20198;-49
2023/01/18 10:15:35;;;;;;;2.65;1.63;;;25.40;52.20;;;;;;4953554;29;20203;-46
2023/01/18 10:18:06;;;;;;;3.28;1.88;;;25.40;52.20;;;;;;4953318;29;20225;-46
2023/01/18 10:20:43;;;;;;;3.28;1.65;;;25.40;52.20;;;;;;4953452;29;20557;-47
2023/01/18 10:23:21;;;;;;;2.72;1.30;;;25.30;52.70;;;;;;4952668;29;20636;-45
2023/01/18 10:25:56;;;;;;;2.63;1.30;;;25.30;52.10;;;;;;4953142;28;20198;-46
2023/01/18 10:28:39;;;;;;;1.65;1.40;;;25.30;52.10;;;;;;4952990;29;20202;-45
2023/01/18 10:31:24;;;;;;;2.92;1.48;;;25.30;52.10;;;;;;4952249;28;20683;-47
2023/01/18 10:33:57;;;;;;;2.63;1.50;;;25.20;52.10;;;;;;4953145;28;20199;-48
2023/01/18 10:36:31;;;;;;;2.38;1.33;;;25.20;52.10;;;;;;4953187;28;20215;-46
2023/01/18 10:39:07;;;;;;;2.03;1.30;;;25.20;52.10;;;;;;4952574;29;20740;-47
2023/01/18 10:41:41;;;;;;;2.70;1.52;;;25.20;52.00;;;;;;4937406;29;20213;-48
2023/01/18 10:44:12;;;;;;;2.00;1.25;;;25.10;52.00;;;;;;4949175;29;20223;-48
2023/01/18 10:46:43;;;;;;;2.28;1.20;;;25.20;52.10;;;;;;4952408;28;20219;-48
2023/01/18 10:49:37;;;;;;;1.65;1.38;;;25.10;52.00;;;;;;4944751;29;20286;-45
2023/01/18 10:52:26;;;;;;;2.65;1.55;;;25.10;52.00;;;;;;4953027;28;20210;-47
2023/01/18 10:55:00;;;;;;;1.95;1.40;;;25.10;51.90;;;;;;4952207;28;20195;-48
2023/01/18 10:57:36;;;;;;;1.88;1.35;;;25.10;51.90;;;;;;4951765;28;20273;-48
2023/01/18 11:00:20;;;;;;;2.60;1.40;;;25.10;51.90;;;;;;4935832;29;20242;-47
2023/01/18 11:02:52;;;;;;;2.03;1.23;;;25.00;51.90;;;;;;4933667;29;20203;-49
2023/01/18 11:05:29;;;;;;;1.80;1.13;;;25.00;51.90;;;;;;4934245;29;20203;-46
2023/01/18 11:08:23;;;;;;;1.85;1.20;;;25.00;51.80;;;;;;4933761;29;20260;-48
2023/01/18 11:11:05;;;;;;;3.33;1.15;;;24.90;52.40;;;;;;4933647;29;20191;-47
2023/01/18 11:13:44;;;;;;;1.80;1.23;;;24.90;51.80;;;;;;4933998;29;20200;-48
2023/01/18 11:16:17;;;;;;;3.75;1.45;;;24.90;51.80;;;;;;4933704;29;20219;-47
2023/01/18 11:19:06;;;;;;;3.17;1.45;;;24.90;51.80;;;;;;4933704;29;20234;-50
2023/01/18 11:21:48;;;;;;;2.55;1.27;;;24.90;51.80;;;;;;4933591;29;20199;-50
2023/01/18 11:24:21;;;;;;;2.13;1.42;;;24.90;51.80;;;;;;4936531;29;20218;-51
2023/01/18 11:26:58;;;;;;;1.40;1.08;;;24.90;51.80;;;;;;4933494;29;20223;-51
2023/01/18 11:29:33;;;;;;;2.88;1.45;;;24.90;51.80;;;;;;4933900;29;20204;-50
2023/01/18 11:32:08;;;;;;;2.00;1.05;;;24.80;51.70;;;;;;4933780;29;20199;-51
2023/01/18 11:34:41;;;;;;;3.42;1.30;;;24.80;51.70;;;;;;4933664;29;20238;-49
2023/01/18 11:37:33;;;;;;;3.40;1.27;;;24.80;51.70;;;;;;4933075;29;20227;-48
2023/01/18 11:40:27;;;;;;;1.33;1.17;;;24.70;51.70;;;;;;4933519;29;20204;-48
2023/01/18 11:43:02;;;;;;;2.78;1.20;;;24.70;51.70;;;;;;4936913;29;20253;-49
2023/01/18 11:45:39;;;;;;;2.80;1.35;;;24.70;51.70;;;;;;4937508;29;20294;-53
2023/01/18 11:48:16;;;;;;;2.38;1.20;;;24.70;51.70;;;;;;4937336;29;20199;-49
2023/01/18 11:50:51;;;;;;;2.22;1.42;;;24.70;51.70;;;;;;4937595;29;20203;-49
2023/01/18 11:53:35;;;;;;;2.00;1.00;;;24.60;51.70;;;;;;4937591;29;20210;-46
2023/01/18 11:56:11;;;;;;;2.17;1.30;;;24.60;51.70;;;;;;4936813;29;20227;-46
2023/01/18 11:58:43;;;;;;;1.20;1.10;;;24.60;51.70;;;;;;4936975;29;20613;-48
2023/01/18 12:01:47;;;;;;;2.00;1.20;;;24.60;51.70;;;;;;4937191;29;20203;-48
2023/01/18 12:04:27;;;;;;;1.50;1.33;;;24.60;51.70;;;;;;4918965;29;20207;-48
2023/01/18 12:07:08;;;;;;;1.25;1.05;;;24.60;51.60;;;;;;4936636;29;20707;-48
2023/01/18 12:09:47;;;;;;;2.05;1.10;;;24.50;51.60;;;;;;4936904;29;20230;-49
2023/01/18 12:12:32;;;;;;;1.90;1.15;;;24.50;51.60;;;;;;4936640;29;20195;-50
2023/01/18 12:15:22;;;;;;;1.63;1.20;;;24.50;51.60;;;;;;4936801;29;20206;-48
2023/01/18 12:18:10;;;;;;;1.65;1.05;;;24.50;51.60;;;;;;4936861;29;20231;-47
2023/01/18 12:20:49;;;;;;;1.40;1.08;;;24.40;51.60;;;;;;4936954;29;20200;-48
2023/01/18 12:23:51;;;;;;;2.30;1.20;;;24.40;51.50;;;;;;4937153;29;20667;-46
2023/01/18 12:26:37;;;;;;;1.60;1.17;;;24.40;51.60;;;;;;4937012;29;20219;-50
2023/01/18 12:29:42;;;;;;;1.67;1.13;;;24.40;51.50;;;;;;4936915;29;20203;-47
2023/01/18 12:32:31;;;;;;;1.45;1.08;;;24.30;51.50;;;;;;4935953;29;20210;-47
2023/01/18 12:35:27;;;;;;;2.78;1.30;;;24.30;51.50;;;;;;4936364;29;20204;-47
2023/01/18 12:38:08;;;;;;;1.25;1.10;;;24.30;51.50;;;;;;4936615;29;20255;-48
2023/01/18 12:40:50;;;;;;;3.70;1.30;;;24.30;51.50;;;;;;4936932;29;20203;-49
2023/01/18 12:43:37;;;;;;;1.65;1.10;;;24.30;51.50;;;;;;4936316;29;20203;-47
2023/01/18 12:46:11;;;;;;;1.92;1.10;;;24.30;51.50;;;;;;4936313;29;20274;-46
2023/01/18 12:48:48;;;;;;;3.33;1.30;;;24.30;51.80;;;;;;4936453;29;20198;-50
2023/01/18 12:51:23;;;;;;;1.65;1.27;;;24.20;51.40;;;;;;4937146;29;20254;-51
2023/01/18 12:53:58;;;;;;;1.95;1.20;;;24.20;51.50;;;;;;4936315;29;20203;-47
2023/01/18 12:56:33;;;;;;;1.27;1.00;;;24.20;51.50;;;;;;4935987;29;20215;-47
2023/01/18 12:59:07;;;;;;;1.65;1.00;;;24.20;51.50;;;;;;4936320;29;20246;-48
2023/01/18 13:01:43;;;;;;;1.50;0.95;;;24.10;51.50;;;;;;4936270;29;20200;-46
2023/01/18 13:04:19;;;;;;;1.63;1.23;;;24.10;51.50;;;;;;4936155;29;20210;-48
2023/01/18 13:06:54;;;;;;;1.77;1.05;;;24.10;51.50;;;;;;4936202;29;20223;-49
2023/01/18 13:09:27;;;;;;;1.20;0.95;;;24.10;51.50;;;;;;4936131;29;20693;-49
2023/01/18 13:11:58;;;;;;;1.80;1.17;;;24.10;51.50;;;;;;4935836;29;20656;-49
2023/01/18 13:14:34;;;;;;;1.50;1.40;;;24.00;51.40;;;;;;4935966;29;20290;-47
2023/01/18 13:17:10;;;;;;;1.70;0.98;;;24.00;51.50;;;;;;4936343;29;20219;-48
2023/01/18 13:19:44;;;;;;;2.08;1.10;;;24.00;51.50;;;;;;4935622;29;20218;-48
2023/01/18 13:22:25;;;;;;;1.13;0.93;;;24.00;51.50;;;;;;4935681;29;20200;-48
2023/01/18 13:25:21;;;;;;;1.92;1.08;;;24.00;51.50;;;;;;4935662;29;20196;-48
2023/01/18 13:28:00;;;;;;;1.50;1.10;;;23.90;51.40;;;;;;4935582;29;20730;-49
2023/01/18 13:30:33;;;;;;;2.08;1.17;;;23.90;51.40;;;;;;4937540;29;20215;-49
2023/01/18 13:33:15;;;;;;;2.53;1.00;;;23.90;51.40;;;;;;4935239;29;20203;-52
2023/01/18 13:35:55;;;;;;;2.20;1.17;;;23.90;51.40;;;;;;4935390;29;20227;-47
2023/01/18 13:38:29;;;;;;;1.40;0.95;;;23.80;51.40;;;;;;4935580;29;20238;-49
2023/01/18 13:41:02;;;;;;;1.75;1.00;;;23.80;51.40;;;;;;4935313;29;20203;-48
2023/01/18 13:44:03;;;;;;;2.60;1.13;;;23.80;51.40;;;;;;4935158;29;20254;-50
2023/01/18 13:46:37;;;;;;;1.38;1.00;;;23.80;51.50;;;;;;4934928;29;20246;-48
2023/01/18 13:49:36;;;;;;;1.08;1.05;;;23.80;51.40;;;;;;4935453;29;20206;-50
2023/01/18 13:52:21;;;;;;;1.52;1.00;;;23.70;51.40;;;;;;4945889;29;20609;-51
2023/01/18 13:55:05;;;;;;;1.40;1.13;;;23.70;51.40;;;;;;4954288;29;20195;-50
2023/01/18 13:57:37;;;;;;;1.30;1.00;;;23.70;51.40;;;;;;4953989;28;20707;-50
2023/01/18 14:00:23;;;;;;;1.70;0.98;;;23.70;51.40;;;;;;4954344;28;20207;-49